<?xml version="1.0" encoding="UTF-8" standalone="no" ?>
<gpx xmlns="http://www.topografix.com/GPX/1/1" xmlns:xsi="http://www.w3.org/2001/XMLSchema-instance" xsi:schemaLocation="http://www.topografix.com/GPX/1/1 http://www.topografix.com/GPX/1/1/gpx.xsd" version="1.1" creator="VisuGPX - https://www.visugpx.com">
  <metadata>
    <name>2025-08-17 07:42</name>
    <desc><![CDATA[Itinéraire Creuzier le vieux - St clément mix chemin et route ]]></desc>
  </metadata>
  <wpt lat="46.16987" lon="3.43053">
    <ele>418.35</ele>
    <name><![CDATA[0000095]]></name>
    <type><![CDATA[Point de départ]]></type>
  </wpt>
  <wpt lat="46.07993" lon="3.69349">
    <ele>500.86</ele>
    <name><![CDATA[0000096]]></name>
    <desc><![CDATA[<p><br /><h3>Nom: Segment: 1</h3><br />Heure de départ: 07:45 17 août 2025<br/>Heure d'arrivée: 11:10 17 août 2025<br/>Distance: 31,3km (03:24)<br/>Temps déplacement: 03:07<br/>Vitesse moyenne: 9,17 km/h<br/>Vitesse moyenne mouv.: 10,01 km/h<br/>Vitesse Max.: 25,32 km/h<br/>Altitude minimale: 284 m<br/>Altitude maximale: 589 m<br/>Vitesse de montée: 800,2 m/h<br/>Vitesse de descente: -905,8 m/h<br/>Gain d'altitude: 1477 m<br/>Perte d'altitude: -1395 m<br/>Temps de montée: 01:50<br/>Temps de descente: 01:32<br/></p>]]></desc>
    <type><![CDATA[Point d'arrivée]]></type>
  </wpt>
  <wpt lat="46.07993" lon="3.69349">
    <ele>500.86</ele>
    <name><![CDATA[0000096]]></name>
    <desc><![CDATA[<p><br /><h3>Nom: Segment: 1</h3><br />Heure de départ: 07:45 17 août 2025<br/>Heure d'arrivée: 11:10 17 août 2025<br/>Distance: 31,3km (03:24)<br/>Temps déplacement: 03:07<br/>Vitesse moyenne: 9,17 km/h<br/>Vitesse moyenne mouv.: 10,01 km/h<br/>Vitesse Max.: 25,32 km/h<br/>Altitude minimale: 284 m<br/>Altitude maximale: 589 m<br/>Vitesse de montée: 800,2 m/h<br/>Vitesse de descente: -905,8 m/h<br/>Gain d'altitude: 1477 m<br/>Perte d'altitude: -1395 m<br/>Temps de montée: 01:50<br/>Temps de descente: 01:32<br/></p>]]></desc>
    <type><![CDATA[Point d'arrivée]]></type>
  </wpt>
  <trk>
    <name><![CDATA[2025-08-17 07:42]]></name>
    <desc><![CDATA[<p>Heure de départ: 07:45 17 août 2025<br/>Heure d'arrivée: 11:10 17 août 2025<br/>Distance: 31,3 km (03:24)<br/>Temps déplacement: 03:07<br/>Vitesse moyenne: 9,17 km/h<br/>Vitesse moyenne mouv.: 10,01 km/h<br/>Vitesse Max.: 25,32 km/h<br/>Altitude minimale: 284 m<br/>Altitude maximale: 589 m<br/>Vitesse de montée: 486,6 m/h<br/>Vitesse de descente: -582,6 m/h<br/>Gain d'altitude: 941 m<br/>Perte d'altitude: -850 m<br/>Temps de montée: 01:56<br/>Temps de descente: 01:27<br/></p><hr align="center" width="480" style="height: 2px; width: 517px"/>]]></desc>
    <trkseg>
      <trkpt lat="46.16987" lon="3.43053">
        <ele>418.35</ele>
        <time>2025-08-17T05:45:18Z</time>
      </trkpt>
      <trkpt lat="46.16938" lon="3.43145">
        <ele>411.6</ele>
        <time>2025-08-17T05:46:06Z</time>
      </trkpt>
      <trkpt lat="46.16935" lon="3.43282">
        <ele>404.83</ele>
        <time>2025-08-17T05:47:18Z</time>
      </trkpt>
      <trkpt lat="46.1686" lon="3.43247">
        <ele>324.37</ele>
        <time>2025-08-17T05:47:35Z</time>
      </trkpt>
      <trkpt lat="46.16823" lon="3.43337">
        <ele>284.03</ele>
        <time>2025-08-17T05:47:59Z</time>
      </trkpt>
      <trkpt lat="46.16837" lon="3.43441">
        <ele>370.39</ele>
        <time>2025-08-17T05:48:47Z</time>
      </trkpt>
      <trkpt lat="46.16843" lon="3.43555">
        <ele>383.46</ele>
        <time>2025-08-17T05:49:19Z</time>
      </trkpt>
      <trkpt lat="46.16851" lon="3.43666">
        <ele>375.71</ele>
        <time>2025-08-17T05:49:51Z</time>
      </trkpt>
      <trkpt lat="46.16858" lon="3.43772">
        <ele>376.35</ele>
        <time>2025-08-17T05:50:23Z</time>
      </trkpt>
      <trkpt lat="46.16869" lon="3.4389">
        <ele>379.67</ele>
        <time>2025-08-17T05:51:03Z</time>
      </trkpt>
      <trkpt lat="46.16875" lon="3.44002">
        <ele>386.78</ele>
        <time>2025-08-17T05:51:35Z</time>
      </trkpt>
      <trkpt lat="46.16836" lon="3.44107">
        <ele>373.11</ele>
        <time>2025-08-17T05:51:59Z</time>
      </trkpt>
      <trkpt lat="46.16803" lon="3.44201">
        <ele>374.72</ele>
        <time>2025-08-17T05:52:31Z</time>
      </trkpt>
      <trkpt lat="46.16753" lon="3.44281">
        <ele>379.85</ele>
        <time>2025-08-17T05:53:03Z</time>
      </trkpt>
      <trkpt lat="46.16675" lon="3.44324">
        <ele>387.62</ele>
        <time>2025-08-17T05:53:35Z</time>
      </trkpt>
      <trkpt lat="46.1659" lon="3.44382">
        <ele>386.49</ele>
        <time>2025-08-17T05:54:07Z</time>
      </trkpt>
      <trkpt lat="46.16514" lon="3.44434">
        <ele>382.55</ele>
        <time>2025-08-17T05:54:39Z</time>
      </trkpt>
      <trkpt lat="46.16438" lon="3.4451">
        <ele>385.09</ele>
        <time>2025-08-17T05:55:11Z</time>
      </trkpt>
      <trkpt lat="46.16372" lon="3.44571">
        <ele>392.34</ele>
        <time>2025-08-17T05:55:43Z</time>
      </trkpt>
      <trkpt lat="46.16296" lon="3.4459">
        <ele>393.01</ele>
        <time>2025-08-17T05:56:07Z</time>
      </trkpt>
      <trkpt lat="46.16212" lon="3.44616">
        <ele>392.62</ele>
        <time>2025-08-17T05:56:39Z</time>
      </trkpt>
      <trkpt lat="46.16139" lon="3.44692">
        <ele>393.97</ele>
        <time>2025-08-17T05:57:11Z</time>
      </trkpt>
      <trkpt lat="46.16053" lon="3.44691">
        <ele>398.62</ele>
        <time>2025-08-17T05:57:43Z</time>
      </trkpt>
      <trkpt lat="46.15971" lon="3.44698">
        <ele>405.75</ele>
        <time>2025-08-17T05:58:15Z</time>
      </trkpt>
      <trkpt lat="46.15882" lon="3.44725">
        <ele>401.26</ele>
        <time>2025-08-17T05:58:47Z</time>
      </trkpt>
      <trkpt lat="46.158" lon="3.44775">
        <ele>398.08</ele>
        <time>2025-08-17T05:59:19Z</time>
      </trkpt>
      <trkpt lat="46.15717" lon="3.44811">
        <ele>400.01</ele>
        <time>2025-08-17T05:59:51Z</time>
      </trkpt>
      <trkpt lat="46.15648" lon="3.44846">
        <ele>388.82</ele>
        <time>2025-08-17T06:00:15Z</time>
      </trkpt>
      <trkpt lat="46.15584" lon="3.44935">
        <ele>375.42</ele>
        <time>2025-08-17T06:00:47Z</time>
      </trkpt>
      <trkpt lat="46.15584" lon="3.45047">
        <ele>397.23</ele>
        <time>2025-08-17T06:01:35Z</time>
      </trkpt>
      <trkpt lat="46.15599" lon="3.45177">
        <ele>395.43</ele>
        <time>2025-08-17T06:02:07Z</time>
      </trkpt>
      <trkpt lat="46.15595" lon="3.45299">
        <ele>383.7</ele>
        <time>2025-08-17T06:02:39Z</time>
      </trkpt>
      <trkpt lat="46.15541" lon="3.45404">
        <ele>381.56</ele>
        <time>2025-08-17T06:03:19Z</time>
      </trkpt>
      <trkpt lat="46.15585" lon="3.45489">
        <ele>358.17</ele>
        <time>2025-08-17T06:04:23Z</time>
      </trkpt>
      <trkpt lat="46.15585" lon="3.45617">
        <ele>351.65</ele>
        <time>2025-08-17T06:04:47Z</time>
      </trkpt>
      <trkpt lat="46.15627" lon="3.45744">
        <ele>356.98</ele>
        <time>2025-08-17T06:05:27Z</time>
      </trkpt>
      <trkpt lat="46.1561" lon="3.45862">
        <ele>341.96</ele>
        <time>2025-08-17T06:05:51Z</time>
      </trkpt>
      <trkpt lat="46.15566" lon="3.45978">
        <ele>336.96</ele>
        <time>2025-08-17T06:06:31Z</time>
      </trkpt>
      <trkpt lat="46.15553" lon="3.46122">
        <ele>328.67</ele>
        <time>2025-08-17T06:07:03Z</time>
      </trkpt>
      <trkpt lat="46.15509" lon="3.46206">
        <ele>315.18</ele>
        <time>2025-08-17T06:07:27Z</time>
      </trkpt>
      <trkpt lat="46.15481" lon="3.46318">
        <ele>322.5</ele>
        <time>2025-08-17T06:07:59Z</time>
      </trkpt>
      <trkpt lat="46.15435" lon="3.46438">
        <ele>326.63</ele>
        <time>2025-08-17T06:08:31Z</time>
      </trkpt>
      <trkpt lat="46.1539" lon="3.46545">
        <ele>316.56</ele>
        <time>2025-08-17T06:09:03Z</time>
      </trkpt>
      <trkpt lat="46.15319" lon="3.46576">
        <ele>315.9</ele>
        <time>2025-08-17T06:09:35Z</time>
      </trkpt>
      <trkpt lat="46.15242" lon="3.46509">
        <ele>311.94</ele>
        <time>2025-08-17T06:10:07Z</time>
      </trkpt>
      <trkpt lat="46.15185" lon="3.46435">
        <ele>323.91</ele>
        <time>2025-08-17T06:10:39Z</time>
      </trkpt>
      <trkpt lat="46.15111" lon="3.46373">
        <ele>320.38</ele>
        <time>2025-08-17T06:11:11Z</time>
      </trkpt>
      <trkpt lat="46.15025" lon="3.46336">
        <ele>349.22</ele>
        <time>2025-08-17T06:11:59Z</time>
      </trkpt>
      <trkpt lat="46.14954" lon="3.46383">
        <ele>340.5</ele>
        <time>2025-08-17T06:12:23Z</time>
      </trkpt>
      <trkpt lat="46.14877" lon="3.46409">
        <ele>340.23</ele>
        <time>2025-08-17T06:12:55Z</time>
      </trkpt>
      <trkpt lat="46.14791" lon="3.46401">
        <ele>341.46</ele>
        <time>2025-08-17T06:13:27Z</time>
      </trkpt>
      <trkpt lat="46.14717" lon="3.46397">
        <ele>349.62</ele>
        <time>2025-08-17T06:13:59Z</time>
      </trkpt>
      <trkpt lat="46.14637" lon="3.4641">
        <ele>358.12</ele>
        <time>2025-08-17T06:14:31Z</time>
      </trkpt>
      <trkpt lat="46.14585" lon="3.46501">
        <ele>354.24</ele>
        <time>2025-08-17T06:15:03Z</time>
      </trkpt>
      <trkpt lat="46.14508" lon="3.46573">
        <ele>340.55</ele>
        <time>2025-08-17T06:15:35Z</time>
      </trkpt>
      <trkpt lat="46.14534" lon="3.4668">
        <ele>348.78</ele>
        <time>2025-08-17T06:16:07Z</time>
      </trkpt>
      <trkpt lat="46.14583" lon="3.46788">
        <ele>362.87</ele>
        <time>2025-08-17T06:16:39Z</time>
      </trkpt>
      <trkpt lat="46.14595" lon="3.46904">
        <ele>355.63</ele>
        <time>2025-08-17T06:17:11Z</time>
      </trkpt>
      <trkpt lat="46.14567" lon="3.47011">
        <ele>342.92</ele>
        <time>2025-08-17T06:17:35Z</time>
      </trkpt>
      <trkpt lat="46.14538" lon="3.4712">
        <ele>342.89</ele>
        <time>2025-08-17T06:18:07Z</time>
      </trkpt>
      <trkpt lat="46.1449" lon="3.47207">
        <ele>358.82</ele>
        <time>2025-08-17T06:18:39Z</time>
      </trkpt>
      <trkpt lat="46.14522" lon="3.47304">
        <ele>372.71</ele>
        <time>2025-08-17T06:19:27Z</time>
      </trkpt>
      <trkpt lat="46.14574" lon="3.47382">
        <ele>372.05</ele>
        <time>2025-08-17T06:19:51Z</time>
      </trkpt>
      <trkpt lat="46.14553" lon="3.47484">
        <ele>352.39</ele>
        <time>2025-08-17T06:20:31Z</time>
      </trkpt>
      <trkpt lat="46.14463" lon="3.47443">
        <ele>349.68</ele>
        <time>2025-08-17T06:21:03Z</time>
      </trkpt>
      <trkpt lat="46.1439" lon="3.47404">
        <ele>349.26</ele>
        <time>2025-08-17T06:21:35Z</time>
      </trkpt>
      <trkpt lat="46.14308" lon="3.47364">
        <ele>339.12</ele>
        <time>2025-08-17T06:22:07Z</time>
      </trkpt>
      <trkpt lat="46.14235" lon="3.4733">
        <ele>338.05</ele>
        <time>2025-08-17T06:22:39Z</time>
      </trkpt>
      <trkpt lat="46.14154" lon="3.47298">
        <ele>323.44</ele>
        <time>2025-08-17T06:23:11Z</time>
      </trkpt>
      <trkpt lat="46.14082" lon="3.47339">
        <ele>313.6</ele>
        <time>2025-08-17T06:23:43Z</time>
      </trkpt>
      <trkpt lat="46.14016" lon="3.47425">
        <ele>295.59</ele>
        <time>2025-08-17T06:24:07Z</time>
      </trkpt>
      <trkpt lat="46.13953" lon="3.47496">
        <ele>298.94</ele>
        <time>2025-08-17T06:24:47Z</time>
      </trkpt>
      <trkpt lat="46.13879" lon="3.47488">
        <ele>316.27</ele>
        <time>2025-08-17T06:25:27Z</time>
      </trkpt>
      <trkpt lat="46.13803" lon="3.47482">
        <ele>301.71</ele>
        <time>2025-08-17T06:25:51Z</time>
      </trkpt>
      <trkpt lat="46.1377" lon="3.47577">
        <ele>301.84</ele>
        <time>2025-08-17T06:26:23Z</time>
      </trkpt>
      <trkpt lat="46.13757" lon="3.4771">
        <ele>309.56</ele>
        <time>2025-08-17T06:27:03Z</time>
      </trkpt>
      <trkpt lat="46.13772" lon="3.47819">
        <ele>322.66</ele>
        <time>2025-08-17T06:27:43Z</time>
      </trkpt>
      <trkpt lat="46.13805" lon="3.47922">
        <ele>323.45</ele>
        <time>2025-08-17T06:28:15Z</time>
      </trkpt>
      <trkpt lat="46.13797" lon="3.48028">
        <ele>324.4</ele>
        <time>2025-08-17T06:28:47Z</time>
      </trkpt>
      <trkpt lat="46.13744" lon="3.48124">
        <ele>338.16</ele>
        <time>2025-08-17T06:29:27Z</time>
      </trkpt>
      <trkpt lat="46.1375" lon="3.4823">
        <ele>347.29</ele>
        <time>2025-08-17T06:30:07Z</time>
      </trkpt>
      <trkpt lat="46.13824" lon="3.48304">
        <ele>343.83</ele>
        <time>2025-08-17T06:30:47Z</time>
      </trkpt>
      <trkpt lat="46.13891" lon="3.48394">
        <ele>350.92</ele>
        <time>2025-08-17T06:31:19Z</time>
      </trkpt>
      <trkpt lat="46.13894" lon="3.48509">
        <ele>366.56</ele>
        <time>2025-08-17T06:31:59Z</time>
      </trkpt>
      <trkpt lat="46.1394" lon="3.48595">
        <ele>377.61</ele>
        <time>2025-08-17T06:32:39Z</time>
      </trkpt>
      <trkpt lat="46.14014" lon="3.48692">
        <ele>370.06</ele>
        <time>2025-08-17T06:33:11Z</time>
      </trkpt>
      <trkpt lat="46.14064" lon="3.48788">
        <ele>369.23</ele>
        <time>2025-08-17T06:33:51Z</time>
      </trkpt>
      <trkpt lat="46.14116" lon="3.48862">
        <ele>379.26</ele>
        <time>2025-08-17T06:34:31Z</time>
      </trkpt>
      <trkpt lat="46.14177" lon="3.4894">
        <ele>380.92</ele>
        <time>2025-08-17T06:35:19Z</time>
      </trkpt>
      <trkpt lat="46.14253" lon="3.48998">
        <ele>383.67</ele>
        <time>2025-08-17T06:35:51Z</time>
      </trkpt>
      <trkpt lat="46.14315" lon="3.49072">
        <ele>399.63</ele>
        <time>2025-08-17T06:41:03Z</time>
      </trkpt>
      <trkpt lat="46.14348" lon="3.4917">
        <ele>392.28</ele>
        <time>2025-08-17T06:41:35Z</time>
      </trkpt>
      <trkpt lat="46.14403" lon="3.49261">
        <ele>399.37</ele>
        <time>2025-08-17T06:42:07Z</time>
      </trkpt>
      <trkpt lat="46.14451" lon="3.49353">
        <ele>398.47</ele>
        <time>2025-08-17T06:42:31Z</time>
      </trkpt>
      <trkpt lat="46.14365" lon="3.49338">
        <ele>424.93</ele>
        <time>2025-08-17T06:43:27Z</time>
      </trkpt>
      <trkpt lat="46.14293" lon="3.49365">
        <ele>425.13</ele>
        <time>2025-08-17T06:43:59Z</time>
      </trkpt>
      <trkpt lat="46.14221" lon="3.49407">
        <ele>444.44</ele>
        <time>2025-08-17T06:44:39Z</time>
      </trkpt>
      <trkpt lat="46.14143" lon="3.49472">
        <ele>452.69</ele>
        <time>2025-08-17T06:45:19Z</time>
      </trkpt>
      <trkpt lat="46.14063" lon="3.49522">
        <ele>442.52</ele>
        <time>2025-08-17T06:45:51Z</time>
      </trkpt>
      <trkpt lat="46.13989" lon="3.49568">
        <ele>435.61</ele>
        <time>2025-08-17T06:46:23Z</time>
      </trkpt>
      <trkpt lat="46.13906" lon="3.49569">
        <ele>456.6</ele>
        <time>2025-08-17T06:47:03Z</time>
      </trkpt>
      <trkpt lat="46.13823" lon="3.49581">
        <ele>456.49</ele>
        <time>2025-08-17T06:47:35Z</time>
      </trkpt>
      <trkpt lat="46.13754" lon="3.49633">
        <ele>432.64</ele>
        <time>2025-08-17T06:47:59Z</time>
      </trkpt>
      <trkpt lat="46.13733" lon="3.49748">
        <ele>422.29</ele>
        <time>2025-08-17T06:48:31Z</time>
      </trkpt>
      <trkpt lat="46.1369" lon="3.49833">
        <ele>423.03</ele>
        <time>2025-08-17T06:49:03Z</time>
      </trkpt>
      <trkpt lat="46.13637" lon="3.49933">
        <ele>417.6</ele>
        <time>2025-08-17T06:49:35Z</time>
      </trkpt>
      <trkpt lat="46.13561" lon="3.50002">
        <ele>396.24</ele>
        <time>2025-08-17T06:50:07Z</time>
      </trkpt>
      <trkpt lat="46.13487" lon="3.50089">
        <ele>395.97</ele>
        <time>2025-08-17T06:50:47Z</time>
      </trkpt>
      <trkpt lat="46.13406" lon="3.50067">
        <ele>401.75</ele>
        <time>2025-08-17T06:51:11Z</time>
      </trkpt>
      <trkpt lat="46.1345" lon="3.50184">
        <ele>383.9</ele>
        <time>2025-08-17T06:51:59Z</time>
      </trkpt>
      <trkpt lat="46.13398" lon="3.50256">
        <ele>358.85</ele>
        <time>2025-08-17T06:52:31Z</time>
      </trkpt>
      <trkpt lat="46.13349" lon="3.50337">
        <ele>351.48</ele>
        <time>2025-08-17T06:53:11Z</time>
      </trkpt>
      <trkpt lat="46.13308" lon="3.50427">
        <ele>353.13</ele>
        <time>2025-08-17T06:53:43Z</time>
      </trkpt>
      <trkpt lat="46.13244" lon="3.50479">
        <ele>371.21</ele>
        <time>2025-08-17T06:54:55Z</time>
      </trkpt>
      <trkpt lat="46.1318" lon="3.50532">
        <ele>395.04</ele>
        <time>2025-08-17T06:55:51Z</time>
      </trkpt>
      <trkpt lat="46.13107" lon="3.50586">
        <ele>408.01</ele>
        <time>2025-08-17T06:56:31Z</time>
      </trkpt>
      <trkpt lat="46.13051" lon="3.50676">
        <ele>420.52</ele>
        <time>2025-08-17T06:57:11Z</time>
      </trkpt>
      <trkpt lat="46.12993" lon="3.50756">
        <ele>433.77</ele>
        <time>2025-08-17T06:57:43Z</time>
      </trkpt>
      <trkpt lat="46.12909" lon="3.50787">
        <ele>433.91</ele>
        <time>2025-08-17T06:58:15Z</time>
      </trkpt>
      <trkpt lat="46.12837" lon="3.50726">
        <ele>441.83</ele>
        <time>2025-08-17T06:59:03Z</time>
      </trkpt>
      <trkpt lat="46.12753" lon="3.50746">
        <ele>432.11</ele>
        <time>2025-08-17T06:59:27Z</time>
      </trkpt>
      <trkpt lat="46.12669" lon="3.50798">
        <ele>425.38</ele>
        <time>2025-08-17T06:59:59Z</time>
      </trkpt>
      <trkpt lat="46.12591" lon="3.50838">
        <ele>426.24</ele>
        <time>2025-08-17T07:00:31Z</time>
      </trkpt>
      <trkpt lat="46.12516" lon="3.50892">
        <ele>431.4</ele>
        <time>2025-08-17T07:01:03Z</time>
      </trkpt>
      <trkpt lat="46.12455" lon="3.50978">
        <ele>437.37</ele>
        <time>2025-08-17T07:01:35Z</time>
      </trkpt>
      <trkpt lat="46.12396" lon="3.51077">
        <ele>439.01</ele>
        <time>2025-08-17T07:02:07Z</time>
      </trkpt>
      <trkpt lat="46.12327" lon="3.51154">
        <ele>431.65</ele>
        <time>2025-08-17T07:02:39Z</time>
      </trkpt>
      <trkpt lat="46.12334" lon="3.51285">
        <ele>419.3</ele>
        <time>2025-08-17T07:03:11Z</time>
      </trkpt>
      <trkpt lat="46.12319" lon="3.51416">
        <ele>416.5</ele>
        <time>2025-08-17T07:03:43Z</time>
      </trkpt>
      <trkpt lat="46.12306" lon="3.51526">
        <ele>413.7</ele>
        <time>2025-08-17T07:04:07Z</time>
      </trkpt>
      <trkpt lat="46.12278" lon="3.51623">
        <ele>416.76</ele>
        <time>2025-08-17T07:04:31Z</time>
      </trkpt>
      <trkpt lat="46.12243" lon="3.51719">
        <ele>410.06</ele>
        <time>2025-08-17T07:04:55Z</time>
      </trkpt>
      <trkpt lat="46.12203" lon="3.51837">
        <ele>417.53</ele>
        <time>2025-08-17T07:05:27Z</time>
      </trkpt>
      <trkpt lat="46.12167" lon="3.51958">
        <ele>422.01</ele>
        <time>2025-08-17T07:05:59Z</time>
      </trkpt>
      <trkpt lat="46.12129" lon="3.52048">
        <ele>415.92</ele>
        <time>2025-08-17T07:06:23Z</time>
      </trkpt>
      <trkpt lat="46.12088" lon="3.52156">
        <ele>420.08</ele>
        <time>2025-08-17T07:06:55Z</time>
      </trkpt>
      <trkpt lat="46.12044" lon="3.52264">
        <ele>416.71</ele>
        <time>2025-08-17T07:07:27Z</time>
      </trkpt>
      <trkpt lat="46.12003" lon="3.52375">
        <ele>423.63</ele>
        <time>2025-08-17T07:07:59Z</time>
      </trkpt>
      <trkpt lat="46.11958" lon="3.52475">
        <ele>426.85</ele>
        <time>2025-08-17T07:08:31Z</time>
      </trkpt>
      <trkpt lat="46.11918" lon="3.52565">
        <ele>427.8</ele>
        <time>2025-08-17T07:08:55Z</time>
      </trkpt>
      <trkpt lat="46.11871" lon="3.52677">
        <ele>433.43</ele>
        <time>2025-08-17T07:09:27Z</time>
      </trkpt>
      <trkpt lat="46.11832" lon="3.52767">
        <ele>430.95</ele>
        <time>2025-08-17T07:09:51Z</time>
      </trkpt>
      <trkpt lat="46.11787" lon="3.52878">
        <ele>433.03</ele>
        <time>2025-08-17T07:10:23Z</time>
      </trkpt>
      <trkpt lat="46.11743" lon="3.52989">
        <ele>432.58</ele>
        <time>2025-08-17T07:10:55Z</time>
      </trkpt>
      <trkpt lat="46.11734" lon="3.53095">
        <ele>436.28</ele>
        <time>2025-08-17T07:11:27Z</time>
      </trkpt>
      <trkpt lat="46.11726" lon="3.53212">
        <ele>438.34</ele>
        <time>2025-08-17T07:11:59Z</time>
      </trkpt>
      <trkpt lat="46.11761" lon="3.53318">
        <ele>451.04</ele>
        <time>2025-08-17T07:12:39Z</time>
      </trkpt>
      <trkpt lat="46.1181" lon="3.5343">
        <ele>464.17</ele>
        <time>2025-08-17T07:13:19Z</time>
      </trkpt>
      <trkpt lat="46.11829" lon="3.53541">
        <ele>467.05</ele>
        <time>2025-08-17T07:13:51Z</time>
      </trkpt>
      <trkpt lat="46.11852" lon="3.53646">
        <ele>470.8</ele>
        <time>2025-08-17T07:14:23Z</time>
      </trkpt>
      <trkpt lat="46.1186" lon="3.53773">
        <ele>482.77</ele>
        <time>2025-08-17T07:15:03Z</time>
      </trkpt>
      <trkpt lat="46.11867" lon="3.5389">
        <ele>488.04</ele>
        <time>2025-08-17T07:15:35Z</time>
      </trkpt>
      <trkpt lat="46.11873" lon="3.54022">
        <ele>496.66</ele>
        <time>2025-08-17T07:16:15Z</time>
      </trkpt>
      <trkpt lat="46.11908" lon="3.54145">
        <ele>494.5</ele>
        <time>2025-08-17T07:16:47Z</time>
      </trkpt>
      <trkpt lat="46.11949" lon="3.54256">
        <ele>495.78</ele>
        <time>2025-08-17T07:17:19Z</time>
      </trkpt>
      <trkpt lat="46.11979" lon="3.54374">
        <ele>499.37</ele>
        <time>2025-08-17T07:17:51Z</time>
      </trkpt>
      <trkpt lat="46.11997" lon="3.5448">
        <ele>506.57</ele>
        <time>2025-08-17T07:18:23Z</time>
      </trkpt>
      <trkpt lat="46.11995" lon="3.54617">
        <ele>503.88</ele>
        <time>2025-08-17T07:18:55Z</time>
      </trkpt>
      <trkpt lat="46.11981" lon="3.54749">
        <ele>501.22</ele>
        <time>2025-08-17T07:19:27Z</time>
      </trkpt>
      <trkpt lat="46.11944" lon="3.5484">
        <ele>493.55</ele>
        <time>2025-08-17T07:19:51Z</time>
      </trkpt>
      <trkpt lat="46.11884" lon="3.54951">
        <ele>493.04</ele>
        <time>2025-08-17T07:20:23Z</time>
      </trkpt>
      <trkpt lat="46.11834" lon="3.55036">
        <ele>485.68</ele>
        <time>2025-08-17T07:20:47Z</time>
      </trkpt>
      <trkpt lat="46.11774" lon="3.55144">
        <ele>485.04</ele>
        <time>2025-08-17T07:21:19Z</time>
      </trkpt>
      <trkpt lat="46.11717" lon="3.55251">
        <ele>485.73</ele>
        <time>2025-08-17T07:21:51Z</time>
      </trkpt>
      <trkpt lat="46.11644" lon="3.5534">
        <ele>485.67</ele>
        <time>2025-08-17T07:22:23Z</time>
      </trkpt>
      <trkpt lat="46.11577" lon="3.55398">
        <ele>479.96</ele>
        <time>2025-08-17T07:22:47Z</time>
      </trkpt>
      <trkpt lat="46.11515" lon="3.5548">
        <ele>489.97</ele>
        <time>2025-08-17T07:23:19Z</time>
      </trkpt>
      <trkpt lat="46.11452" lon="3.5554">
        <ele>489.05</ele>
        <time>2025-08-17T07:23:43Z</time>
      </trkpt>
      <trkpt lat="46.1138" lon="3.55624">
        <ele>489.61</ele>
        <time>2025-08-17T07:24:15Z</time>
      </trkpt>
      <trkpt lat="46.11314" lon="3.55683">
        <ele>486.12</ele>
        <time>2025-08-17T07:24:39Z</time>
      </trkpt>
      <trkpt lat="46.11241" lon="3.55766">
        <ele>492.69</ele>
        <time>2025-08-17T07:25:11Z</time>
      </trkpt>
      <trkpt lat="46.11142" lon="3.55817">
        <ele>498.81</ele>
        <time>2025-08-17T07:25:43Z</time>
      </trkpt>
      <trkpt lat="46.11072" lon="3.5585">
        <ele>486.78</ele>
        <time>2025-08-17T07:26:07Z</time>
      </trkpt>
      <trkpt lat="46.10994" lon="3.55887">
        <ele>483.6</ele>
        <time>2025-08-17T07:26:31Z</time>
      </trkpt>
      <trkpt lat="46.10909" lon="3.55913">
        <ele>488.79</ele>
        <time>2025-08-17T07:27:03Z</time>
      </trkpt>
      <trkpt lat="46.10834" lon="3.55886">
        <ele>491.17</ele>
        <time>2025-08-17T07:27:27Z</time>
      </trkpt>
      <trkpt lat="46.10738" lon="3.55878">
        <ele>475.39</ele>
        <time>2025-08-17T07:27:59Z</time>
      </trkpt>
      <trkpt lat="46.10662" lon="3.55946">
        <ele>464.15</ele>
        <time>2025-08-17T07:28:31Z</time>
      </trkpt>
      <trkpt lat="46.10604" lon="3.56045">
        <ele>458.71</ele>
        <time>2025-08-17T07:29:03Z</time>
      </trkpt>
      <trkpt lat="46.10531" lon="3.56109">
        <ele>442.63</ele>
        <time>2025-08-17T07:29:27Z</time>
      </trkpt>
      <trkpt lat="46.10449" lon="3.56107">
        <ele>443.37</ele>
        <time>2025-08-17T07:29:59Z</time>
      </trkpt>
      <trkpt lat="46.1039" lon="3.56177">
        <ele>440.09</ele>
        <time>2025-08-17T07:30:47Z</time>
      </trkpt>
      <trkpt lat="46.1038" lon="3.56281">
        <ele>450.65</ele>
        <time>2025-08-17T07:31:11Z</time>
      </trkpt>
      <trkpt lat="46.10355" lon="3.56387">
        <ele>439.75</ele>
        <time>2025-08-17T07:31:51Z</time>
      </trkpt>
      <trkpt lat="46.10303" lon="3.56491">
        <ele>438.82</ele>
        <time>2025-08-17T07:33:11Z</time>
      </trkpt>
      <trkpt lat="46.10242" lon="3.56595">
        <ele>440.3</ele>
        <time>2025-08-17T07:33:51Z</time>
      </trkpt>
      <trkpt lat="46.10328" lon="3.56653">
        <ele>464.37</ele>
        <time>2025-08-17T07:34:47Z</time>
      </trkpt>
      <trkpt lat="46.10335" lon="3.56763">
        <ele>452.66</ele>
        <time>2025-08-17T07:35:27Z</time>
      </trkpt>
      <trkpt lat="46.10258" lon="3.5679">
        <ele>458.64</ele>
        <time>2025-08-17T07:35:59Z</time>
      </trkpt>
      <trkpt lat="46.10176" lon="3.56847">
        <ele>456.79</ele>
        <time>2025-08-17T07:36:31Z</time>
      </trkpt>
      <trkpt lat="46.10107" lon="3.56906">
        <ele>462.76</ele>
        <time>2025-08-17T07:37:03Z</time>
      </trkpt>
      <trkpt lat="46.1003" lon="3.56968">
        <ele>466.37</ele>
        <time>2025-08-17T07:37:35Z</time>
      </trkpt>
      <trkpt lat="46.10005" lon="3.57077">
        <ele>462.7</ele>
        <time>2025-08-17T07:38:07Z</time>
      </trkpt>
      <trkpt lat="46.09985" lon="3.57201">
        <ele>463.33</ele>
        <time>2025-08-17T07:38:39Z</time>
      </trkpt>
      <trkpt lat="46.09987" lon="3.57308">
        <ele>465.41</ele>
        <time>2025-08-17T07:39:03Z</time>
      </trkpt>
      <trkpt lat="46.09956" lon="3.57422">
        <ele>467.79</ele>
        <time>2025-08-17T07:39:35Z</time>
      </trkpt>
      <trkpt lat="46.09922" lon="3.57533">
        <ele>480.44</ele>
        <time>2025-08-17T07:40:15Z</time>
      </trkpt>
      <trkpt lat="46.09897" lon="3.57651">
        <ele>475.84</ele>
        <time>2025-08-17T07:40:47Z</time>
      </trkpt>
      <trkpt lat="46.09864" lon="3.57769">
        <ele>484.33</ele>
        <time>2025-08-17T07:41:19Z</time>
      </trkpt>
      <trkpt lat="46.09812" lon="3.57854">
        <ele>489.49</ele>
        <time>2025-08-17T07:41:51Z</time>
      </trkpt>
      <trkpt lat="46.09764" lon="3.5795">
        <ele>490.99</ele>
        <time>2025-08-17T07:42:23Z</time>
      </trkpt>
      <trkpt lat="46.09689" lon="3.57939">
        <ele>547.55</ele>
        <time>2025-08-17T07:43:19Z</time>
      </trkpt>
      <trkpt lat="46.09612" lon="3.57936">
        <ele>539.8</ele>
        <time>2025-08-17T07:43:35Z</time>
      </trkpt>
      <trkpt lat="46.09566" lon="3.57823">
        <ele>519.75</ele>
        <time>2025-08-17T07:44:15Z</time>
      </trkpt>
      <trkpt lat="46.09503" lon="3.57751">
        <ele>515.97</ele>
        <time>2025-08-17T07:45:03Z</time>
      </trkpt>
      <trkpt lat="46.0941" lon="3.57748">
        <ele>512.19</ele>
        <time>2025-08-17T07:45:27Z</time>
      </trkpt>
      <trkpt lat="46.09339" lon="3.57773">
        <ele>498.13</ele>
        <time>2025-08-17T07:45:43Z</time>
      </trkpt>
      <trkpt lat="46.09243" lon="3.57749">
        <ele>464.5</ele>
        <time>2025-08-17T07:46:07Z</time>
      </trkpt>
      <trkpt lat="46.09168" lon="3.57751">
        <ele>468.95</ele>
        <time>2025-08-17T07:46:39Z</time>
      </trkpt>
      <trkpt lat="46.09093" lon="3.57806">
        <ele>477.43</ele>
        <time>2025-08-17T07:47:11Z</time>
      </trkpt>
      <trkpt lat="46.09047" lon="3.57892">
        <ele>500.83</ele>
        <time>2025-08-17T07:47:51Z</time>
      </trkpt>
      <trkpt lat="46.08968" lon="3.57898">
        <ele>517.56</ele>
        <time>2025-08-17T07:48:31Z</time>
      </trkpt>
      <trkpt lat="46.08866" lon="3.57901">
        <ele>510.23</ele>
        <time>2025-08-17T07:48:47Z</time>
      </trkpt>
      <trkpt lat="46.08833" lon="3.58004">
        <ele>489.69</ele>
        <time>2025-08-17T07:49:11Z</time>
      </trkpt>
      <trkpt lat="46.08833" lon="3.58116">
        <ele>502.76</ele>
        <time>2025-08-17T07:49:43Z</time>
      </trkpt>
      <trkpt lat="46.0889" lon="3.58204">
        <ele>509.81</ele>
        <time>2025-08-17T07:50:15Z</time>
      </trkpt>
      <trkpt lat="46.08947" lon="3.58293">
        <ele>515.57</ele>
        <time>2025-08-17T07:50:47Z</time>
      </trkpt>
      <trkpt lat="46.09002" lon="3.58389">
        <ele>527.74</ele>
        <time>2025-08-17T07:51:19Z</time>
      </trkpt>
      <trkpt lat="46.09052" lon="3.58505">
        <ele>526.78</ele>
        <time>2025-08-17T07:51:51Z</time>
      </trkpt>
      <trkpt lat="46.08998" lon="3.5859">
        <ele>513.34</ele>
        <time>2025-08-17T07:52:15Z</time>
      </trkpt>
      <trkpt lat="46.09009" lon="3.58694">
        <ele>511.82</ele>
        <time>2025-08-17T07:53:03Z</time>
      </trkpt>
      <trkpt lat="46.09068" lon="3.58776">
        <ele>505.99</ele>
        <time>2025-08-17T07:53:59Z</time>
      </trkpt>
      <trkpt lat="46.09112" lon="3.58883">
        <ele>518.28</ele>
        <time>2025-08-17T07:54:31Z</time>
      </trkpt>
      <trkpt lat="46.09111" lon="3.58992">
        <ele>515.7</ele>
        <time>2025-08-17T07:54:55Z</time>
      </trkpt>
      <trkpt lat="46.09106" lon="3.59103">
        <ele>510.15</ele>
        <time>2025-08-17T07:55:19Z</time>
      </trkpt>
      <trkpt lat="46.09106" lon="3.59227">
        <ele>514.83</ele>
        <time>2025-08-17T07:55:51Z</time>
      </trkpt>
      <trkpt lat="46.09098" lon="3.59337">
        <ele>511.93</ele>
        <time>2025-08-17T07:56:15Z</time>
      </trkpt>
      <trkpt lat="46.09097" lon="3.59459">
        <ele>516.41</ele>
        <time>2025-08-17T07:56:47Z</time>
      </trkpt>
      <trkpt lat="46.09089" lon="3.59568">
        <ele>516.54</ele>
        <time>2025-08-17T07:57:11Z</time>
      </trkpt>
      <trkpt lat="46.09082" lon="3.59683">
        <ele>509.54</ele>
        <time>2025-08-17T07:57:35Z</time>
      </trkpt>
      <trkpt lat="46.09062" lon="3.59804">
        <ele>514.06</ele>
        <time>2025-08-17T07:58:07Z</time>
      </trkpt>
      <trkpt lat="46.09029" lon="3.59918">
        <ele>517.61</ele>
        <time>2025-08-17T07:58:39Z</time>
      </trkpt>
      <trkpt lat="46.09008" lon="3.60027">
        <ele>514.2</ele>
        <time>2025-08-17T07:59:03Z</time>
      </trkpt>
      <trkpt lat="46.08985" lon="3.60127">
        <ele>511.89</ele>
        <time>2025-08-17T07:59:27Z</time>
      </trkpt>
      <trkpt lat="46.08983" lon="3.60253">
        <ele>516.37</ele>
        <time>2025-08-17T07:59:59Z</time>
      </trkpt>
      <trkpt lat="46.09007" lon="3.60371">
        <ele>519.67</ele>
        <time>2025-08-17T08:00:31Z</time>
      </trkpt>
      <trkpt lat="46.09034" lon="3.60471">
        <ele>516.69</ele>
        <time>2025-08-17T08:00:55Z</time>
      </trkpt>
      <trkpt lat="46.09058" lon="3.60575">
        <ele>507.14</ele>
        <time>2025-08-17T08:01:19Z</time>
      </trkpt>
      <trkpt lat="46.09061" lon="3.60681">
        <ele>518.45</ele>
        <time>2025-08-17T08:01:51Z</time>
      </trkpt>
      <trkpt lat="46.09057" lon="3.60796">
        <ele>527.89</ele>
        <time>2025-08-17T08:02:23Z</time>
      </trkpt>
      <trkpt lat="46.09052" lon="3.60915">
        <ele>534.09</ele>
        <time>2025-08-17T08:02:55Z</time>
      </trkpt>
      <trkpt lat="46.09013" lon="3.61035">
        <ele>530.41</ele>
        <time>2025-08-17T08:03:27Z</time>
      </trkpt>
      <trkpt lat="46.08974" lon="3.61137">
        <ele>535.34</ele>
        <time>2025-08-17T08:03:59Z</time>
      </trkpt>
      <trkpt lat="46.08949" lon="3.61263">
        <ele>535.41</ele>
        <time>2025-08-17T08:04:31Z</time>
      </trkpt>
      <trkpt lat="46.08931" lon="3.61367">
        <ele>524.52</ele>
        <time>2025-08-17T08:04:55Z</time>
      </trkpt>
      <trkpt lat="46.08939" lon="3.61474">
        <ele>508.9</ele>
        <time>2025-08-17T08:05:19Z</time>
      </trkpt>
      <trkpt lat="46.08904" lon="3.61567">
        <ele>511.92</ele>
        <time>2025-08-17T08:06:07Z</time>
      </trkpt>
      <trkpt lat="46.08865" lon="3.61668">
        <ele>508.18</ele>
        <time>2025-08-17T08:06:39Z</time>
      </trkpt>
      <trkpt lat="46.08808" lon="3.61759">
        <ele>500.45</ele>
        <time>2025-08-17T08:08:55Z</time>
      </trkpt>
      <trkpt lat="46.08744" lon="3.61824">
        <ele>494</ele>
        <time>2025-08-17T08:09:27Z</time>
      </trkpt>
      <trkpt lat="46.08679" lon="3.61882">
        <ele>487.19</ele>
        <time>2025-08-17T08:09:51Z</time>
      </trkpt>
      <trkpt lat="46.08617" lon="3.61956">
        <ele>485.78</ele>
        <time>2025-08-17T08:10:23Z</time>
      </trkpt>
      <trkpt lat="46.08546" lon="3.62036">
        <ele>499.03</ele>
        <time>2025-08-17T08:11:03Z</time>
      </trkpt>
      <trkpt lat="46.08511" lon="3.62157">
        <ele>509.46</ele>
        <time>2025-08-17T08:11:43Z</time>
      </trkpt>
      <trkpt lat="46.08465" lon="3.6224">
        <ele>517.66</ele>
        <time>2025-08-17T08:12:15Z</time>
      </trkpt>
      <trkpt lat="46.08389" lon="3.62261">
        <ele>517.43</ele>
        <time>2025-08-17T08:12:47Z</time>
      </trkpt>
      <trkpt lat="46.0831" lon="3.62293">
        <ele>517.91</ele>
        <time>2025-08-17T08:13:19Z</time>
      </trkpt>
      <trkpt lat="46.08239" lon="3.62356">
        <ele>521.71</ele>
        <time>2025-08-17T08:13:51Z</time>
      </trkpt>
      <trkpt lat="46.08199" lon="3.62449">
        <ele>526.09</ele>
        <time>2025-08-17T08:14:23Z</time>
      </trkpt>
      <trkpt lat="46.08169" lon="3.62543">
        <ele>532.08</ele>
        <time>2025-08-17T08:15:19Z</time>
      </trkpt>
      <trkpt lat="46.08135" lon="3.62635">
        <ele>549.3</ele>
        <time>2025-08-17T08:16:15Z</time>
      </trkpt>
      <trkpt lat="46.08091" lon="3.62721">
        <ele>568.84</ele>
        <time>2025-08-17T08:17:19Z</time>
      </trkpt>
      <trkpt lat="46.08037" lon="3.62804">
        <ele>575.32</ele>
        <time>2025-08-17T08:18:15Z</time>
      </trkpt>
      <trkpt lat="46.08024" lon="3.62923">
        <ele>581.17</ele>
        <time>2025-08-17T08:19:11Z</time>
      </trkpt>
      <trkpt lat="46.08027" lon="3.63034">
        <ele>585.98</ele>
        <time>2025-08-17T08:19:51Z</time>
      </trkpt>
      <trkpt lat="46.08018" lon="3.63145">
        <ele>576.84</ele>
        <time>2025-08-17T08:20:23Z</time>
      </trkpt>
      <trkpt lat="46.08039" lon="3.63255">
        <ele>580.22</ele>
        <time>2025-08-17T08:20:55Z</time>
      </trkpt>
      <trkpt lat="46.08057" lon="3.63362">
        <ele>577.77</ele>
        <time>2025-08-17T08:21:27Z</time>
      </trkpt>
      <trkpt lat="46.08137" lon="3.63325">
        <ele>589.95</ele>
        <time>2025-08-17T08:22:23Z</time>
      </trkpt>
      <trkpt lat="46.08214" lon="3.63371">
        <ele>571.28</ele>
        <time>2025-08-17T08:23:03Z</time>
      </trkpt>
      <trkpt lat="46.08264" lon="3.63451">
        <ele>563.6</ele>
        <time>2025-08-17T08:24:31Z</time>
      </trkpt>
      <trkpt lat="46.08345" lon="3.63515">
        <ele>541.31</ele>
        <time>2025-08-17T08:25:19Z</time>
      </trkpt>
      <trkpt lat="46.08424" lon="3.63567">
        <ele>541.6</ele>
        <time>2025-08-17T08:25:51Z</time>
      </trkpt>
      <trkpt lat="46.08361" lon="3.63635">
        <ele>530.98</ele>
        <time>2025-08-17T08:27:51Z</time>
      </trkpt>
      <trkpt lat="46.0829" lon="3.63659">
        <ele>547.55</ele>
        <time>2025-08-17T08:28:23Z</time>
      </trkpt>
      <trkpt lat="46.08207" lon="3.63676">
        <ele>542.18</ele>
        <time>2025-08-17T08:28:47Z</time>
      </trkpt>
      <trkpt lat="46.08138" lon="3.63749">
        <ele>546.11</ele>
        <time>2025-08-17T08:29:19Z</time>
      </trkpt>
      <trkpt lat="46.08065" lon="3.63809">
        <ele>554.36</ele>
        <time>2025-08-17T08:29:59Z</time>
      </trkpt>
      <trkpt lat="46.07979" lon="3.63779">
        <ele>547.4</ele>
        <time>2025-08-17T08:30:23Z</time>
      </trkpt>
      <trkpt lat="46.07891" lon="3.63807">
        <ele>546.74</ele>
        <time>2025-08-17T08:30:55Z</time>
      </trkpt>
      <trkpt lat="46.0783" lon="3.63875">
        <ele>559.12</ele>
        <time>2025-08-17T08:31:27Z</time>
      </trkpt>
      <trkpt lat="46.07757" lon="3.63926">
        <ele>571.87</ele>
        <time>2025-08-17T08:31:59Z</time>
      </trkpt>
      <trkpt lat="46.0769" lon="3.63985">
        <ele>562.63</ele>
        <time>2025-08-17T08:32:23Z</time>
      </trkpt>
      <trkpt lat="46.07621" lon="3.64056">
        <ele>568.83</ele>
        <time>2025-08-17T08:32:55Z</time>
      </trkpt>
      <trkpt lat="46.07534" lon="3.64095">
        <ele>557.73</ele>
        <time>2025-08-17T08:33:27Z</time>
      </trkpt>
      <trkpt lat="46.07453" lon="3.64177">
        <ele>551.58</ele>
        <time>2025-08-17T08:33:59Z</time>
      </trkpt>
      <trkpt lat="46.07454" lon="3.64293">
        <ele>541.2</ele>
        <time>2025-08-17T08:34:31Z</time>
      </trkpt>
      <trkpt lat="46.07502" lon="3.64377">
        <ele>570.73</ele>
        <time>2025-08-17T08:35:03Z</time>
      </trkpt>
      <trkpt lat="46.07559" lon="3.64471">
        <ele>539.61</ele>
        <time>2025-08-17T08:35:27Z</time>
      </trkpt>
      <trkpt lat="46.07632" lon="3.64546">
        <ele>516.36</ele>
        <time>2025-08-17T08:35:59Z</time>
      </trkpt>
      <trkpt lat="46.07706" lon="3.64567">
        <ele>508.17</ele>
        <time>2025-08-17T08:36:23Z</time>
      </trkpt>
      <trkpt lat="46.07785" lon="3.64648">
        <ele>543.46</ele>
        <time>2025-08-17T08:37:03Z</time>
      </trkpt>
      <trkpt lat="46.07804" lon="3.64748">
        <ele>546.49</ele>
        <time>2025-08-17T08:37:27Z</time>
      </trkpt>
      <trkpt lat="46.07821" lon="3.64856">
        <ele>529.76</ele>
        <time>2025-08-17T08:37:51Z</time>
      </trkpt>
      <trkpt lat="46.07867" lon="3.64948">
        <ele>538.47</ele>
        <time>2025-08-17T08:38:23Z</time>
      </trkpt>
      <trkpt lat="46.07884" lon="3.65058">
        <ele>530.38</ele>
        <time>2025-08-17T08:39:35Z</time>
      </trkpt>
      <trkpt lat="46.07889" lon="3.65169">
        <ele>541.95</ele>
        <time>2025-08-17T08:40:23Z</time>
      </trkpt>
      <trkpt lat="46.07893" lon="3.65284">
        <ele>550.41</ele>
        <time>2025-08-17T08:40:55Z</time>
      </trkpt>
      <trkpt lat="46.07891" lon="3.65421">
        <ele>540.59</ele>
        <time>2025-08-17T08:41:27Z</time>
      </trkpt>
      <trkpt lat="46.0785" lon="3.65533">
        <ele>540.37</ele>
        <time>2025-08-17T08:41:59Z</time>
      </trkpt>
      <trkpt lat="46.07793" lon="3.65626">
        <ele>542.49</ele>
        <time>2025-08-17T08:42:31Z</time>
      </trkpt>
      <trkpt lat="46.07724" lon="3.65707">
        <ele>545.3</ele>
        <time>2025-08-17T08:43:03Z</time>
      </trkpt>
      <trkpt lat="46.0765" lon="3.65782">
        <ele>548.85</ele>
        <time>2025-08-17T08:43:35Z</time>
      </trkpt>
      <trkpt lat="46.0758" lon="3.65865">
        <ele>544.74</ele>
        <time>2025-08-17T08:44:07Z</time>
      </trkpt>
      <trkpt lat="46.0752" lon="3.65953">
        <ele>549.53</ele>
        <time>2025-08-17T08:44:39Z</time>
      </trkpt>
      <trkpt lat="46.07464" lon="3.66039">
        <ele>560.33</ele>
        <time>2025-08-17T08:45:11Z</time>
      </trkpt>
      <trkpt lat="46.07418" lon="3.66147">
        <ele>557.06</ele>
        <time>2025-08-17T08:45:43Z</time>
      </trkpt>
      <trkpt lat="46.07357" lon="3.66224">
        <ele>554.41</ele>
        <time>2025-08-17T08:46:15Z</time>
      </trkpt>
      <trkpt lat="46.07276" lon="3.66294">
        <ele>557.43</ele>
        <time>2025-08-17T08:47:03Z</time>
      </trkpt>
      <trkpt lat="46.07216" lon="3.66373">
        <ele>556.35</ele>
        <time>2025-08-17T08:47:35Z</time>
      </trkpt>
      <trkpt lat="46.07196" lon="3.66497">
        <ele>564.27</ele>
        <time>2025-08-17T08:48:07Z</time>
      </trkpt>
      <trkpt lat="46.07202" lon="3.66604">
        <ele>552.11</ele>
        <time>2025-08-17T08:48:39Z</time>
      </trkpt>
      <trkpt lat="46.07182" lon="3.6672">
        <ele>550.4</ele>
        <time>2025-08-17T08:50:39Z</time>
      </trkpt>
      <trkpt lat="46.07203" lon="3.66836">
        <ele>554.24</ele>
        <time>2025-08-17T08:51:35Z</time>
      </trkpt>
      <trkpt lat="46.07282" lon="3.66833">
        <ele>560.78</ele>
        <time>2025-08-17T08:52:39Z</time>
      </trkpt>
      <trkpt lat="46.07344" lon="3.66887">
        <ele>565.33</ele>
        <time>2025-08-17T08:53:19Z</time>
      </trkpt>
      <trkpt lat="46.07371" lon="3.67004">
        <ele>545.05</ele>
        <time>2025-08-17T08:53:43Z</time>
      </trkpt>
      <trkpt lat="46.07416" lon="3.67091">
        <ele>542.22</ele>
        <time>2025-08-17T08:54:07Z</time>
      </trkpt>
      <trkpt lat="46.07466" lon="3.6721">
        <ele>539.27</ele>
        <time>2025-08-17T08:54:39Z</time>
      </trkpt>
      <trkpt lat="46.07459" lon="3.67336">
        <ele>532.55</ele>
        <time>2025-08-17T08:55:11Z</time>
      </trkpt>
      <trkpt lat="46.07507" lon="3.67427">
        <ele>540.93</ele>
        <time>2025-08-17T08:55:43Z</time>
      </trkpt>
      <trkpt lat="46.07542" lon="3.67539">
        <ele>517.74</ele>
        <time>2025-08-17T08:56:55Z</time>
      </trkpt>
      <trkpt lat="46.0757" lon="3.67636">
        <ele>503.22</ele>
        <time>2025-08-17T08:57:27Z</time>
      </trkpt>
      <trkpt lat="46.07613" lon="3.67722">
        <ele>486.83</ele>
        <time>2025-08-17T08:58:15Z</time>
      </trkpt>
      <trkpt lat="46.07638" lon="3.67827">
        <ele>504.79</ele>
        <time>2025-08-17T08:59:19Z</time>
      </trkpt>
      <trkpt lat="46.0771" lon="3.67882">
        <ele>501.88</ele>
        <time>2025-08-17T09:00:15Z</time>
      </trkpt>
      <trkpt lat="46.07727" lon="3.68002">
        <ele>508.36</ele>
        <time>2025-08-17T09:01:11Z</time>
      </trkpt>
      <trkpt lat="46.07733" lon="3.68121">
        <ele>516.44</ele>
        <time>2025-08-17T09:02:07Z</time>
      </trkpt>
      <trkpt lat="46.07738" lon="3.68225">
        <ele>530.2</ele>
        <time>2025-08-17T09:03:03Z</time>
      </trkpt>
      <trkpt lat="46.07744" lon="3.68333">
        <ele>540.86</ele>
        <time>2025-08-17T09:03:59Z</time>
      </trkpt>
      <trkpt lat="46.07791" lon="3.68414">
        <ele>549.76</ele>
        <time>2025-08-17T09:04:47Z</time>
      </trkpt>
      <trkpt lat="46.07819" lon="3.68528">
        <ele>552.25</ele>
        <time>2025-08-17T09:05:19Z</time>
      </trkpt>
      <trkpt lat="46.07831" lon="3.68658">
        <ele>550.35</ele>
        <time>2025-08-17T09:05:51Z</time>
      </trkpt>
      <trkpt lat="46.07768" lon="3.68738">
        <ele>548.11</ele>
        <time>2025-08-17T09:06:55Z</time>
      </trkpt>
      <trkpt lat="46.07711" lon="3.68814">
        <ele>536.28</ele>
        <time>2025-08-17T09:07:19Z</time>
      </trkpt>
      <trkpt lat="46.07704" lon="3.68946">
        <ele>531.79</ele>
        <time>2025-08-17T09:07:51Z</time>
      </trkpt>
      <trkpt lat="46.07754" lon="3.69021">
        <ele>520.24</ele>
        <time>2025-08-17T09:08:15Z</time>
      </trkpt>
      <trkpt lat="46.07811" lon="3.69085">
        <ele>511.91</ele>
        <time>2025-08-17T09:08:39Z</time>
      </trkpt>
      <trkpt lat="46.07871" lon="3.69156">
        <ele>507.43</ele>
        <time>2025-08-17T09:09:03Z</time>
      </trkpt>
      <trkpt lat="46.07934" lon="3.69254">
        <ele>511.37</ele>
        <time>2025-08-17T09:09:35Z</time>
      </trkpt>
      <trkpt lat="46.07993" lon="3.69349">
        <ele>500.86</ele>
        <time>2025-08-17T09:10:07Z</time>
      </trkpt>
    </trkseg>
  </trk>
</gpx>